Old Saybrook, Connecticut
Current Conditions -  °F | °C
As of 3:15 AM on Sunday 21 Dec 2014 (Local Time) from KSNC Reporting Station
Overcast Overcast  
Wind Chill: 27°   Ceiling: 800
Heat Index: 32°   Visibility: 10mi
Dew Point: 30°   Wind: 5mph
Humidity: 93%   Direction: 320°NW
Pressure: 30.25"   Gusts: NA
Location:  41.29°N, 72.38°W
Report Text: KSNC 210815Z AUTO 32004KT 10SM OVC008 00/M01 A3025 RMK AO2
Loading
Personal Weather Stations






























Interactive Weather Map New forecast layout! Learn more

10-Day Weather Forecast

Advertisements
Track Severe Weather on mobile